タヒチ島 の空港の天気 - METARとTAF

タヒチ・ファアア国際空港 ( NTAA / PPT ) - フランス領ポリネシア タヒチ島
飛行場実況気象(Metar)
観測時間07/22 08:00 TAHT (07/22 18:00 UTC)
風向・風速不定 1m/s
視程10km以上
天気現象
少しの雲 雲底高度 700m
気温25℃
湿度69%
気圧1015hPa
METARNTAA 221800Z VRB02KT 9999 FEW023 25/19 Q1015 NOSIG
過去の天気等 Google飛行場航空写真 Wunderground天気予報

過去48時間のMETAR

飛行場予報(TAF)
発表時間: 7/22 07:00 TAHT (7/22 17:00 UTC)
予報対象時間: 22日8時 TAHT ~ 23日14時 TAHT
風向・風速北東 7m/s
視程10km以上
少しの雲 雲底高度 610m
22日20時 TAHT ~ 22日22時 TAHT に徐々に
風向・風速不定 2m/s
23日6時 TAHT ~ 23日8時 TAHT に徐々に
風向・風速北東 7m/s
TAF NTAA 221700Z 2218/2324 04013KT 9999 FEW020
BECMG 2306/2308 VRB03KT
BECMG 2316/2318 04013KT